Isleworth, United Kingdom
Current Conditions -  °F | °C
As of 12:50 AM on Sunday 28 Dec 2014 (Local Time) from EGLL Reporting Station
Clear Clear  
Wind Chill: 28°   Ceiling: Unl
Heat Index: 34°   Visibility: 6mi
Dew Point: 32°   Wind: 7mph
Humidity: 93%   Direction: 350°N
Pressure: 30"   Gusts: NA
Location:  51.47°N, 0.35°W
Report Text: EGLL 280050Z 35006KT 320V030 CAVOK 01/00 Q1016 NOSIG
Loading
Personal Weather Stations






























Interactive Weather Map New forecast layout! Learn more

10-Day Weather Forecast

Advertisements
Track Severe Weather on mobile